createdAt,value
2023-01-28T00:00:44.843Z,22.65
2023-01-28T00:01:47.881Z,26.63
2023-01-28T00:02:51.741Z,22.15
2023-01-28T00:03:54.653Z,23.35
2023-01-28T00:04:56.544Z,21.38
2023-01-28T00:06:03.585Z,23.98
2023-01-28T00:07:05.371Z,23.67
2023-01-28T00:08:08.151Z,22.85
2023-01-28T00:09:09.947Z,23.38
2023-01-28T00:10:12.806Z,23.35
2023-01-28T00:11:14.796Z,24.65
2023-01-28T00:12:17.723Z,23.45
2023-01-28T00:13:19.565Z,27.15
2023-01-28T00:14:22.371Z,28.08
2023-01-28T00:15:25.465Z,25.95
2023-01-28T00:16:28.907Z,25.23
2023-01-28T00:17:30.799Z,23.65
2023-01-28T00:18:35.081Z,20.10
2023-01-28T00:19:36.863Z,23.33
2023-01-28T00:20:39.685Z,20.65
2023-01-28T00:21:41.748Z,22.50
2023-01-28T00:22:48.008Z,25.65
2023-01-28T00:23:52.501Z,24.38
2023-01-28T00:24:55.232Z,24.77
2023-01-28T00:25:58.788Z,20.80
2023-01-28T00:27:01.612Z,23.70
2023-01-28T00:28:03.460Z,22.80
2023-01-28T00:29:06.637Z,21.25
2023-01-28T00:30:09.767Z,22.67
2023-01-28T00:31:17.039Z,22.83
2023-01-28T00:32:19.857Z,22.60
2023-01-28T00:33:21.727Z,22.55
2023-01-28T00:34:25.951Z,24.90
2023-01-28T00:35:27.875Z,19.70
2023-01-28T00:36:30.751Z,20.73
2023-01-28T00:37:32.529Z,20.60
2023-01-28T00:38:35.809Z,22.10
2023-01-28T00:39:37.695Z,18.98
2023-01-28T00:40:40.459Z,20.40
2023-01-28T00:41:42.332Z,20.17
2023-01-28T00:42:45.435Z,18.83
2023-01-28T00:43:47.498Z,19.13
2023-01-28T00:44:50.240Z,24.10
2023-01-28T00:45:52.102Z,25.77
2023-01-28T00:46:55.039Z,20.02
2023-01-28T00:47:57.371Z,23.83
2023-01-28T00:49:00.289Z,21.90
2023-01-28T00:50:03.770Z,23.35
2023-01-28T00:51:08.205Z,20.67
2023-01-28T00:52:10.335Z,24.40
2023-01-28T00:53:13.348Z,20.02
2023-01-28T00:54:15.168Z,25.40
2023-01-28T00:55:18.102Z,23.13
2023-01-28T00:56:20.683Z,22.52
2023-01-28T00:57:23.600Z,23.13
2023-01-28T00:58:25.463Z,22.13
2023-01-28T00:59:28.392Z,25.75
2023-01-28T01:00:30.283Z,24.70
2023-01-28T01:01:33.283Z,23.98
2023-01-28T01:02:35.159Z,24.83
2023-01-28T01:03:38.228Z,25.27
2023-01-28T01:04:40.931Z,24.30
2023-01-28T01:05:45.271Z,20.77
2023-01-28T01:06:47.620Z,20.70
2023-01-28T01:07:50.454Z,19.38
2023-01-28T01:08:52.355Z,23.27
2023-01-28T01:09:55.080Z,22.77
2023-01-28T01:10:59.096Z,22.63
2023-01-28T01:12:02.115Z,21.02
2023-01-28T01:13:04.200Z,23.55
2023-01-28T01:14:07.182Z,19.75
2023-01-28T01:15:10.519Z,21.13
2023-01-28T01:16:16.477Z,18.67
2023-01-28T01:17:18.855Z,19.58
2023-01-28T01:18:21.621Z,20.73
2023-01-28T01:19:23.423Z,22.02
2023-01-28T01:20:28.336Z,21.33
2023-01-28T01:21:31.729Z,23.15
2023-01-28T01:22:35.103Z,24.70
2023-01-28T01:23:37.950Z,20.85
2023-01-28T01:24:40.693Z,23.80
2023-01-28T01:25:42.525Z,23.15
2023-01-28T01:26:45.616Z,22.05
2023-01-28T01:27:49.722Z,21.02
2023-01-28T01:28:54.203Z,21.08
2023-01-28T01:29:56.173Z,21.27
2023-01-28T01:31:02.371Z,21.42
2023-01-28T01:32:04.677Z,19.60
2023-01-28T01:33:07.589Z,22.00
2023-01-28T01:34:09.923Z,24.38
2023-01-28T01:35:13.310Z,26.10
2023-01-28T01:36:17.104Z,23.95
2023-01-28T01:37:21.820Z,22.00
2023-01-28T01:38:23.845Z,19.13
2023-01-28T01:39:27.305Z,26.20
2023-01-28T01:40:29.693Z,24.83
2023-01-28T01:41:33.973Z,22.58
2023-01-28T01:42:35.862Z,22.90
2023-01-28T01:43:49.422Z,20.20
2023-01-28T01:45:02.276Z,23.48
2023-01-28T01:46:05.896Z,22.98
2023-01-28T01:47:08.953Z,24.48
2023-01-28T01:48:15.840Z,22.65
2023-01-28T01:49:19.897Z,23.15
2023-01-28T01:50:26.379Z,22.48
2023-01-28T01:51:31.240Z,22.38
2023-01-28T01:52:36.777Z,24.17
2023-01-28T01:53:42.564Z,28.00
2023-01-28T01:54:48.520Z,25.90
2023-01-28T01:55:53.077Z,23.60
2023-01-28T01:56:56.362Z,22.35
2023-01-28T01:58:01.013Z,23.35
2023-01-28T01:59:04.961Z,21.63
2023-01-28T02:00:08.966Z,23.10
2023-01-28T02:01:17.794Z,25.88
2023-01-28T02:02:19.727Z,21.67
2023-01-28T02:03:27.549Z,25.25
2023-01-28T02:04:33.005Z,22.33
2023-01-28T02:05:34.992Z,24.73
2023-01-28T02:06:38.482Z,22.15
2023-01-28T02:07:42.082Z,22.73
2023-01-28T02:08:45.559Z,23.25
2023-01-28T02:09:47.413Z,23.70
2023-01-28T02:10:53.345Z,19.48
2023-01-28T02:11:59.536Z,25.50
2023-01-28T02:13:01.793Z,22.55
2023-01-28T02:14:05.781Z,21.98
2023-01-28T02:15:10.411Z,24.70
2023-01-28T02:16:14.097Z,22.17
2023-01-28T02:17:16.812Z,29.08
2023-01-28T02:18:23.017Z,23.90
2023-01-28T02:19:29.681Z,23.40
2023-01-28T02:20:44.493Z,22.00
2023-01-28T02:22:12.189Z,21.40
2023-01-28T02:23:24.930Z,19.85
2023-01-28T02:24:45.154Z,24.02
2023-01-28T02:26:20.628Z,19.83
2023-01-28T02:27:28.526Z,21.05
2023-01-28T02:28:35.645Z,23.35
2023-01-28T02:29:41.175Z,22.50
2023-01-28T02:30:52.123Z,21.58
2023-01-28T02:31:58.906Z,22.13
2023-01-28T02:33:05.053Z,20.10
2023-01-28T02:34:12.219Z,18.90
2023-01-28T02:35:17.390Z,20.02
2023-01-28T02:36:26.052Z,20.80
2023-01-28T02:37:30.928Z,22.38
2023-01-28T02:38:37.501Z,20.92
2023-01-28T02:39:45.879Z,21.88
2023-01-28T02:41:05.740Z,19.85
2023-01-28T02:42:11.055Z,18.65
2023-01-28T02:43:15.206Z,20.45
2023-01-28T02:44:19.524Z,20.65
2023-01-28T02:45:23.883Z,17.77
2023-01-28T02:46:53.802Z,22.30
2023-01-28T02:47:58.288Z,19.30
2023-01-28T02:49:02.373Z,18.23
2023-01-28T02:50:06.405Z,16.15
2023-01-28T02:51:16.116Z,22.08
2023-01-28T02:53:04.210Z,18.60
2023-01-28T02:54:12.514Z,21.83
2023-01-28T02:55:20.004Z,21.23
2023-01-28T02:56:29.828Z,17.35
2023-01-28T02:57:40.051Z,18.77
2023-01-28T02:58:47.280Z,19.02
2023-01-28T02:59:58.909Z,16.98
2023-01-28T03:01:07.394Z,18.40
2023-01-28T03:02:15.431Z,18.42
2023-01-28T03:03:22.792Z,18.98
2023-01-28T03:04:28.401Z,19.92
2023-01-28T03:05:33.570Z,19.02
2023-01-28T03:06:40.493Z,19.55
2023-01-28T03:07:43.051Z,23.98
2023-01-28T03:09:05.836Z,21.75
2023-01-28T03:10:11.245Z,18.73
2023-01-28T03:11:31.849Z,19.52
2023-01-28T03:12:54.610Z,20.27
2023-01-28T03:14:15.007Z,19.83
2023-01-28T03:15:39.541Z,21.00
2023-01-28T03:17:00.265Z,19.85
2023-01-28T03:18:23.502Z,23.77
2023-01-28T03:19:43.910Z,20.50
2023-01-28T03:21:09.132Z,18.15
2023-01-28T03:22:31.422Z,20.17
2023-01-28T03:23:56.471Z,19.10
2023-01-28T03:25:17.854Z,18.35
2023-01-28T03:26:40.083Z,19.33
2023-01-28T03:28:06.072Z,20.67
2023-01-28T03:29:28.759Z,18.02
2023-01-28T03:30:57.044Z,19.70
2023-01-28T03:32:28.434Z,19.08
2023-01-28T03:33:50.358Z,20.42
2023-01-28T03:35:12.067Z,19.88
2023-01-28T03:36:32.989Z,17.27
2023-01-28T03:37:36.148Z,18.77
2023-01-28T03:39:04.364Z,18.67
2023-01-28T03:40:08.763Z,17.40
2023-01-28T03:41:11.585Z,18.83
2023-01-28T03:42:18.165Z,17.90
2023-01-28T03:43:38.832Z,20.55
2023-01-28T03:44:51.810Z,21.67
2023-01-28T03:45:56.876Z,17.15
2023-01-28T03:46:58.733Z,19.65
2023-01-28T03:48:01.736Z,17.73
2023-01-28T03:49:03.957Z,17.65
2023-01-28T03:50:07.705Z,18.90
2023-01-28T03:51:18.417Z,20.75
2023-01-28T03:52:22.737Z,18.17
2023-01-28T03:53:24.912Z,18.23
2023-01-28T03:54:27.995Z,19.63
2023-01-28T03:55:30.139Z,21.25
2023-01-28T03:56:37.424Z,19.27
2023-01-28T03:57:40.032Z,16.73
2023-01-28T03:58:53.658Z,21.58
2023-01-28T03:59:55.496Z,17.83
2023-01-28T04:01:00.022Z,24.98
2023-01-28T04:02:03.393Z,22.63
2023-01-28T04:03:16.287Z,19.55
2023-01-28T04:04:24.366Z,22.30
2023-01-28T04:05:28.463Z,20.63
2023-01-28T04:06:31.137Z,20.05
2023-01-28T04:07:55.724Z,19.98
2023-01-28T04:09:27.949Z,20.52
2023-01-28T04:10:40.766Z,18.15
2023-01-28T04:11:54.970Z,18.60
2023-01-28T04:13:04.234Z,21.17
2023-01-28T04:14:07.225Z,20.00
2023-01-28T04:15:28.581Z,17.23
2023-01-28T04:16:31.853Z,16.95
2023-01-28T04:17:35.723Z,21.25
2023-01-28T04:18:38.011Z,20.95
2023-01-28T04:19:41.032Z,23.55
2023-01-28T04:20:43.474Z,22.90
2023-01-28T04:21:47.533Z,20.65
2023-01-28T04:22:50.877Z,21.25
2023-01-28T04:23:55.776Z,24.08
2023-01-28T04:24:58.463Z,21.83
2023-01-28T04:26:01.325Z,21.55
2023-01-28T04:27:03.239Z,20.45
2023-01-28T04:28:06.924Z,23.15
2023-01-28T04:29:09.720Z,21.95
2023-01-28T04:30:15.746Z,22.83
2023-01-28T04:31:24.071Z,22.50
2023-01-28T04:32:47.770Z,21.58
2023-01-28T04:34:17.923Z,20.75
2023-01-28T04:35:29.143Z,21.65
2023-01-28T04:36:43.687Z,20.55
2023-01-28T04:38:06.248Z,22.35
2023-01-28T04:39:24.933Z,21.50
2023-01-28T04:40:56.976Z,20.05
2023-01-28T04:42:05.579Z,19.98
2023-01-28T04:43:28.890Z,19.92
2023-01-28T04:44:50.110Z,22.23
2023-01-28T04:46:07.992Z,20.45
2023-01-28T04:47:20.291Z,18.58
2023-01-28T04:48:43.272Z,22.77
2023-01-28T04:50:03.916Z,19.60
2023-01-28T04:51:36.045Z,19.27
2023-01-28T04:52:56.576Z,19.13
2023-01-28T04:54:12.228Z,20.83
2023-01-28T04:55:14.902Z,21.52
2023-01-28T04:56:18.021Z,19.95
2023-01-28T04:57:20.095Z,21.10
2023-01-28T04:58:23.250Z,20.05
2023-01-28T04:59:28.011Z,21.08
2023-01-28T05:00:31.926Z,22.30
2023-01-28T05:01:34.067Z,20.85
2023-01-28T05:02:37.769Z,18.90
2023-01-28T05:03:39.591Z,22.50
2023-01-28T05:04:44.691Z,22.35
2023-01-28T05:05:57.071Z,18.52
2023-01-28T05:07:10.573Z,21.45
2023-01-28T05:08:12.948Z,23.92
2023-01-28T05:09:15.964Z,22.95
2023-01-28T05:10:19.568Z,21.25
2023-01-28T05:11:22.826Z,21.85
2023-01-28T05:12:30.401Z,18.95
2023-01-28T05:13:33.228Z,19.30
2023-01-28T05:14:35.520Z,18.83
2023-01-28T05:15:42.071Z,19.70
2023-01-28T05:16:43.993Z,21.77
2023-01-28T05:17:48.088Z,21.67
2023-01-28T05:18:52.192Z,18.98
2023-01-28T05:19:57.933Z,18.50
2023-01-28T05:21:02.975Z,17.50
2023-01-28T05:22:06.877Z,19.20
2023-01-28T05:23:19.992Z,18.70
2023-01-28T05:24:26.761Z,20.33
2023-01-28T05:25:28.817Z,20.60
2023-01-28T05:26:32.816Z,19.52
2023-01-28T05:27:54.478Z,21.27
2023-01-28T05:28:56.517Z,20.27
2023-01-28T05:30:00.563Z,20.77
2023-01-28T05:31:04.086Z,20.73
2023-01-28T05:32:07.017Z,19.20
2023-01-28T05:33:08.872Z,18.42
2023-01-28T05:34:12.359Z,17.55
2023-01-28T05:35:16.601Z,16.27
2023-01-28T05:36:20.429Z,21.27
2023-01-28T05:37:22.323Z,18.55
2023-01-28T05:38:29.221Z,21.25
2023-01-28T05:39:31.833Z,19.63
2023-01-28T05:40:34.859Z,21.85
2023-01-28T05:41:37.332Z,22.98
2023-01-28T05:42:40.300Z,18.85
2023-01-28T05:44:02.082Z,21.08
2023-01-28T05:45:25.623Z,22.80
2023-01-28T05:46:37.173Z,22.48
2023-01-28T05:47:51.599Z,21.65
2023-01-28T05:49:16.610Z,23.58
2023-01-28T05:50:53.125Z,21.85
2023-01-28T05:51:56.882Z,22.63
2023-01-28T05:53:00.473Z,24.75
2023-01-28T05:54:08.545Z,23.40
2023-01-28T05:55:11.836Z,23.98
2023-01-28T05:56:13.809Z,22.30
2023-01-28T05:57:17.960Z,24.10
2023-01-28T05:58:20.802Z,21.52
2023-01-28T05:59:25.407Z,20.67
2023-01-28T06:00:29.774Z,23.70
2023-01-28T06:01:32.811Z,22.05
2023-01-28T06:02:34.766Z,24.50
2023-01-28T06:03:37.750Z,24.48
2023-01-28T06:04:39.593Z,23.33
2023-01-28T06:05:42.857Z,25.38
2023-01-28T06:06:46.045Z,21.48
2023-01-28T06:07:49.468Z,22.83
2023-01-28T06:08:51.794Z,23.70
2023-01-28T06:10:01.192Z,24.17
2023-01-28T06:11:03.037Z,23.65
2023-01-28T06:12:09.235Z,21.45
2023-01-28T06:13:24.303Z,22.95
2023-01-28T06:14:45.751Z,21.08
2023-01-28T06:16:19.201Z,21.90
2023-01-28T06:17:33.279Z,21.80
2023-01-28T06:18:44.697Z,20.92
2023-01-28T06:19:46.597Z,23.00
2023-01-28T06:20:50.241Z,20.83
2023-01-28T06:21:53.573Z,24.13
2023-01-28T06:22:56.523Z,20.33
2023-01-28T06:23:58.788Z,21.27
2023-01-28T06:25:01.843Z,23.13
2023-01-28T06:26:04.025Z,21.80
2023-01-28T06:27:10.868Z,24.23
2023-01-28T06:28:12.771Z,21.70
2023-01-28T06:29:15.627Z,21.88
2023-01-28T06:30:17.760Z,21.17
2023-01-28T06:31:20.801Z,24.90
2023-01-28T06:32:22.622Z,22.88
2023-01-28T06:33:25.485Z,22.80
2023-01-28T06:34:27.652Z,25.52
2023-01-28T06:35:30.448Z,21.40
2023-01-28T06:36:32.837Z,26.13
2023-01-28T06:37:55.688Z,21.67
2023-01-28T06:38:57.720Z,23.05
2023-01-28T06:40:00.951Z,21.63
2023-01-28T06:41:02.831Z,24.92
2023-01-28T06:42:05.783Z,25.10
2023-01-28T06:43:07.674Z,21.65
2023-01-28T06:44:11.009Z,22.45
2023-01-28T06:45:12.854Z,23.25
2023-01-28T06:46:15.813Z,25.20
2023-01-28T06:47:18.143Z,21.42
2023-01-28T06:48:21.734Z,22.83
2023-01-28T06:49:24.461Z,24.02
2023-01-28T06:50:26.550Z,21.15
2023-01-28T06:51:29.320Z,23.92
2023-01-28T06:52:31.106Z,24.30
2023-01-28T06:53:35.232Z,22.80
2023-01-28T06:54:37.040Z,23.40
2023-01-28T06:55:39.827Z,23.40
2023-01-28T06:56:41.683Z,25.05
2023-01-28T06:57:45.523Z,26.10
2023-01-28T06:58:48.262Z,24.17
2023-01-28T06:59:50.105Z,23.80
2023-01-28T07:00:54.145Z,27.77
2023-01-28T07:01:56.029Z,33.03
2023-01-28T07:02:58.931Z,32.08
2023-01-28T07:04:00.713Z,32.38
2023-01-28T07:05:03.616Z,33.80
2023-01-28T07:06:06.415Z,37.67
2023-01-28T07:07:09.128Z,27.90
2023-01-28T07:08:10.877Z,23.92
2023-01-28T07:09:15.027Z,22.95
2023-01-28T07:10:17.644Z,22.48
2023-01-28T07:11:20.563Z,22.20
2023-01-28T07:12:22.369Z,20.88
2023-01-28T07:13:25.117Z,25.10
2023-01-28T07:14:26.866Z,28.55
2023-01-28T07:15:29.705Z,25.17
2023-01-28T07:16:31.795Z,21.45
2023-01-28T07:17:34.624Z,23.63
2023-01-28T07:18:36.813Z,22.33
2023-01-28T07:19:39.583Z,22.92
2023-01-28T07:20:41.871Z,25.83
2023-01-28T07:21:44.724Z,21.63
2023-01-28T07:22:46.705Z,20.70
2023-01-28T07:23:49.466Z,22.75
2023-01-28T07:24:53.072Z,19.42
2023-01-28T07:25:55.823Z,22.17
2023-01-28T07:26:57.954Z,23.50
2023-01-28T07:28:00.786Z,20.98
2023-01-28T07:29:02.592Z,20.60
2023-01-28T07:30:06.128Z,20.48
2023-01-28T07:31:09.070Z,22.55
2023-01-28T07:32:11.011Z,20.05
2023-01-28T07:33:13.829Z,21.20
2023-01-28T07:34:17.091Z,21.30
2023-01-28T07:35:18.894Z,21.40
2023-01-28T07:36:21.781Z,20.90
2023-01-28T07:37:23.728Z,21.75
2023-01-28T07:38:26.494Z,18.50
2023-01-28T07:39:28.252Z,21.70
2023-01-28T07:40:32.586Z,29.45
2023-01-28T07:41:34.389Z,32.95
2023-01-28T07:42:42.306Z,24.02
2023-01-28T07:43:48.021Z,19.30
2023-01-28T07:44:49.835Z,21.05
2023-01-28T07:45:52.593Z,19.63
2023-01-28T07:46:54.749Z,18.98
2023-01-28T07:47:58.482Z,19.48
2023-01-28T07:49:00.337Z,17.80
2023-01-28T07:50:03.200Z,19.20
2023-01-28T07:51:05.499Z,17.17
2023-01-28T07:52:08.293Z,16.25
2023-01-28T07:53:12.444Z,19.52
2023-01-28T07:54:14.233Z,20.80
2023-01-28T07:55:17.286Z,19.60
2023-01-28T07:56:21.527Z,18.80
2023-01-28T07:57:23.479Z,19.55
2023-01-28T07:58:26.319Z,17.50
2023-01-28T07:59:28.209Z,19.35
2023-01-28T08:00:32.890Z,18.77
2023-01-28T08:01:34.722Z,18.02
2023-01-28T08:02:37.559Z,17.67
2023-01-28T08:03:40.363Z,17.58
2023-01-28T08:04:42.813Z,17.23
2023-01-28T08:05:47.019Z,19.98
2023-01-28T08:06:48.999Z,19.15
2023-01-28T08:07:51.853Z,16.02
2023-01-28T08:08:55.334Z,17.52
2023-01-28T08:09:57.170Z,17.38
2023-01-28T08:11:00.702Z,15.95
2023-01-28T08:12:04.458Z,15.68
2023-01-28T08:13:07.390Z,19.50
2023-01-28T08:14:10.603Z,17.50
2023-01-28T08:15:13.446Z,16.48
2023-01-28T08:16:16.652Z,16.58
2023-01-28T08:17:18.505Z,16.13
2023-01-28T08:18:21.650Z,14.57
2023-01-28T08:19:23.607Z,18.10
2023-01-28T08:20:27.492Z,18.80
2023-01-28T08:21:29.896Z,18.95
2023-01-28T08:22:32.698Z,18.48
2023-01-28T08:23:34.577Z,18.75
2023-01-28T08:24:37.985Z,18.80
2023-01-28T08:25:39.797Z,16.05
2023-01-28T08:26:42.549Z,15.60
2023-01-28T08:27:45.749Z,19.27
2023-01-28T08:28:50.584Z,19.67
2023-01-28T08:29:53.506Z,17.67
2023-01-28T08:30:56.740Z,17.05
2023-01-28T08:31:58.594Z,17.27
2023-01-28T08:33:01.564Z,15.70
2023-01-28T08:34:03.427Z,14.00
2023-01-28T08:35:07.662Z,18.17
2023-01-28T08:36:10.986Z,16.48
2023-01-28T08:37:12.804Z,19.08
2023-01-28T08:38:17.615Z,18.20
2023-01-28T08:39:20.384Z,17.83
2023-01-28T08:40:22.907Z,20.60
2023-01-28T08:41:25.767Z,16.63
2023-01-28T08:42:27.561Z,18.05
2023-01-28T08:43:31.726Z,16.77
2023-01-28T08:44:34.567Z,19.63
2023-01-28T08:45:36.407Z,26.42
2023-01-28T08:46:39.565Z,34.05
2023-01-28T08:47:48.094Z,24.55
2023-01-28T08:48:51.242Z,20.55
2023-01-28T08:49:53.136Z,16.92
2023-01-28T08:50:59.932Z,15.25
2023-01-28T08:52:01.859Z,15.15
2023-01-28T08:53:06.166Z,14.65
2023-01-28T08:54:08.874Z,13.55
2023-01-28T08:55:11.209Z,18.95
2023-01-28T08:56:14.545Z,19.48
2023-01-28T08:57:16.338Z,14.95
2023-01-28T08:58:19.844Z,14.80
2023-01-28T08:59:24.362Z,15.07
2023-01-28T09:00:26.138Z,13.05
2023-01-28T09:01:29.774Z,11.10
2023-01-28T09:02:32.503Z,11.10
2023-01-28T09:03:36.117Z,15.80
2023-01-28T09:04:38.019Z,12.82
2023-01-28T09:05:41.044Z,11.63
2023-01-28T09:06:42.872Z,12.57
2023-01-28T09:07:45.957Z,14.15
2023-01-28T09:08:47.893Z,11.25
2023-01-28T09:09:50.626Z,12.60
2023-01-28T09:10:55.399Z,10.57
2023-01-28T09:11:58.347Z,12.10
2023-01-28T09:13:04.849Z,12.00
2023-01-28T09:14:07.578Z,12.40
2023-01-28T09:15:11.658Z,15.55
2023-01-28T09:16:14.452Z,18.10
2023-01-28T09:17:16.464Z,19.92
2023-01-28T09:18:19.618Z,16.83
2023-01-28T09:19:22.335Z,14.27
2023-01-28T09:20:24.123Z,14.40
2023-01-28T09:21:26.974Z,16.13
2023-01-28T09:22:28.758Z,13.68
2023-01-28T09:23:31.518Z,14.50
2023-01-28T09:24:33.508Z,19.63
2023-01-28T09:25:37.140Z,24.25
2023-01-28T09:26:39.238Z,23.45
2023-01-28T09:27:42.381Z,21.77
2023-01-28T09:28:45.103Z,20.77
2023-01-28T09:29:46.960Z,14.43
2023-01-28T09:30:51.158Z,14.95
2023-01-28T09:31:52.962Z,16.85
2023-01-28T09:32:58.099Z,17.73
2023-01-28T09:34:00.887Z,15.43
2023-01-28T09:35:02.981Z,16.33
2023-01-28T09:36:07.545Z,13.32
2023-01-28T09:37:09.374Z,13.05
2023-01-28T09:38:12.357Z,12.60
2023-01-28T09:39:15.091Z,12.60
2023-01-28T09:40:20.225Z,13.80
2023-01-28T09:41:28.433Z,15.02
2023-01-28T09:42:40.056Z,15.30
2023-01-28T09:43:51.632Z,17.05
2023-01-28T09:45:02.184Z,17.30
2023-01-28T09:46:07.467Z,14.10
2023-01-28T09:47:14.428Z,18.08
2023-01-28T09:48:19.403Z,13.20
2023-01-28T09:49:26.369Z,14.93
2023-01-28T09:50:33.384Z,15.18
2023-01-28T09:51:40.015Z,12.45
2023-01-28T09:52:43.432Z,12.85
2023-01-28T09:53:50.011Z,11.93
2023-01-28T09:54:57.222Z,13.45
2023-01-28T09:56:03.088Z,11.52
2023-01-28T09:57:09.597Z,11.57
2023-01-28T09:58:15.021Z,13.70
2023-01-28T09:59:19.333Z,12.88
2023-01-28T10:00:24.304Z,11.77
2023-01-28T10:01:37.059Z,13.82
2023-01-28T10:02:52.614Z,13.90
2023-01-28T10:03:59.013Z,13.70
2023-01-28T10:05:13.354Z,13.77
2023-01-28T10:06:23.266Z,15.05
2023-01-28T10:07:35.980Z,13.88
2023-01-28T10:08:55.254Z,13.15
2023-01-28T10:10:03.182Z,11.85
2023-01-28T10:11:13.063Z,13.18
2023-01-28T10:12:25.366Z,12.85
2023-01-28T10:13:39.768Z,15.45
2023-01-28T10:14:50.430Z,12.13
2023-01-28T10:15:59.471Z,12.45
2023-01-28T10:17:08.021Z,12.73
2023-01-28T10:18:17.625Z,12.27
2023-01-28T10:19:23.209Z,11.07
2023-01-28T10:20:30.874Z,13.15
2023-01-28T10:21:37.266Z,12.63
2023-01-28T10:22:41.989Z,13.88
2023-01-28T10:24:13.381Z,14.55
2023-01-28T10:25:19.500Z,11.55
2023-01-28T10:26:26.463Z,12.88
2023-01-28T10:27:30.005Z,15.05
2023-01-28T10:28:35.863Z,20.23
2023-01-28T10:29:39.995Z,19.55
2023-01-28T10:30:44.078Z,15.95
2023-01-28T10:31:53.296Z,14.77
2023-01-28T10:33:01.678Z,12.55
2023-01-28T10:34:05.150Z,11.85
2023-01-28T10:35:07.521Z,12.60
2023-01-28T10:36:10.896Z,14.32
2023-01-28T10:37:14.547Z,11.18
2023-01-28T10:38:19.358Z,12.10
2023-01-28T10:39:24.695Z,12.65
2023-01-28T10:40:26.834Z,12.68
2023-01-28T10:41:29.584Z,12.23
2023-01-28T10:42:34.401Z,13.73
2023-01-28T10:43:39.368Z,11.65
2023-01-28T10:44:43.921Z,13.77
2023-01-28T10:45:53.810Z,12.90
2023-01-28T10:46:58.521Z,12.18
2023-01-28T10:48:04.280Z,11.63
2023-01-28T10:49:14.053Z,12.77
2023-01-28T10:50:19.164Z,12.60
2023-01-28T10:51:32.129Z,11.00
2023-01-28T10:52:35.344Z,11.13
2023-01-28T10:53:38.584Z,12.95
2023-01-28T10:54:41.396Z,13.85
2023-01-28T10:55:48.724Z,11.98
2023-01-28T10:56:53.401Z,14.00
2023-01-28T10:57:55.496Z,10.60
2023-01-28T10:59:01.420Z,13.00
2023-01-28T11:00:23.303Z,12.77
2023-01-28T11:01:26.301Z,10.95
2023-01-28T11:02:32.726Z,13.13
2023-01-28T11:03:55.681Z,12.13
2023-01-28T11:05:01.878Z,14.38
2023-01-28T11:06:05.349Z,12.32
2023-01-28T11:07:17.936Z,12.38
2023-01-28T11:08:22.090Z,14.40
2023-01-28T11:09:25.652Z,12.07
2023-01-28T11:10:32.140Z,13.70
2023-01-28T11:11:34.893Z,11.38
2023-01-28T11:12:36.774Z,15.02
2023-01-28T11:13:50.807Z,11.88
2023-01-28T11:14:54.080Z,13.10
2023-01-28T11:16:00.539Z,13.07
2023-01-28T11:17:03.336Z,14.25
2023-01-28T11:18:08.475Z,12.15
2023-01-28T11:19:14.117Z,15.20
2023-01-28T11:20:20.685Z,14.40
2023-01-28T11:21:26.391Z,14.48
2023-01-28T11:22:33.229Z,15.50
2023-01-28T11:23:39.163Z,15.23
2023-01-28T11:24:42.751Z,15.05
2023-01-28T11:25:45.911Z,14.70
2023-01-28T11:26:49.722Z,13.68
2023-01-28T11:27:53.630Z,12.52
2023-01-28T11:28:55.692Z,12.27
2023-01-28T11:30:02.467Z,12.90
2023-01-28T11:31:05.787Z,15.18
2023-01-28T11:32:18.548Z,14.57
2023-01-28T11:33:22.880Z,14.70
2023-01-28T11:34:28.967Z,13.45
2023-01-28T11:35:32.583Z,15.45
2023-01-28T11:36:35.136Z,14.07
2023-01-28T11:37:38.520Z,13.20
2023-01-28T11:38:50.589Z,18.45
2023-01-28T11:40:01.986Z,16.02
2023-01-28T11:41:29.481Z,14.93
2023-01-28T11:42:33.537Z,14.65
2023-01-28T11:43:38.380Z,14.45
2023-01-28T11:44:41.296Z,14.20
2023-01-28T11:45:59.236Z,15.77
2023-01-28T11:47:31.808Z,14.18
2023-01-28T11:48:43.438Z,17.40
2023-01-28T11:49:57.447Z,14.38
2023-01-28T11:51:04.769Z,16.85
2023-01-28T11:52:24.940Z,17.17
2023-01-28T11:53:54.905Z,13.23
2023-01-28T11:55:12.312Z,15.80
2023-01-28T11:56:26.317Z,26.85
2023-01-28T11:57:36.864Z,17.48
2023-01-28T11:58:46.306Z,16.50
2023-01-28T12:00:00.737Z,14.40
2023-01-28T12:01:09.883Z,15.35
2023-01-28T12:02:24.568Z,20.05
2023-01-28T12:03:44.306Z,23.42
2023-01-28T12:04:56.476Z,30.02
2023-01-28T12:06:17.204Z,32.03
2023-01-28T12:07:32.917Z,30.05
2023-01-28T12:08:38.792Z,18.63
2023-01-28T12:09:48.674Z,13.23
2023-01-28T12:11:03.835Z,14.50
2023-01-28T12:12:24.491Z,15.77
2023-01-28T12:13:39.063Z,14.80
2023-01-28T12:14:59.281Z,14.80
2023-01-28T12:16:15.113Z,12.85
2023-01-28T12:17:26.220Z,15.45
2023-01-28T12:18:39.908Z,18.05
2023-01-28T12:20:01.279Z,19.33
2023-01-28T12:21:08.388Z,17.23
2023-01-28T12:22:37.677Z,14.00
2023-01-28T12:23:53.449Z,15.25
2023-01-28T12:25:07.521Z,15.18
2023-01-28T12:26:37.460Z,14.98
2023-01-28T12:27:48.842Z,15.65
2023-01-28T12:29:03.987Z,12.80
2023-01-28T12:30:17.111Z,13.98
2023-01-28T12:31:33.086Z,15.32
2023-01-28T12:32:48.227Z,14.80
2023-01-28T12:34:24.757Z,15.70
2023-01-28T12:35:52.221Z,16.40
2023-01-28T12:37:00.527Z,15.68
2023-01-28T12:38:15.636Z,13.25
2023-01-28T12:39:26.691Z,14.57
2023-01-28T12:40:46.541Z,17.25
2023-01-28T12:41:52.186Z,14.02
2023-01-28T12:42:57.152Z,17.15
2023-01-28T12:44:02.526Z,14.77
2023-01-28T12:45:16.396Z,16.85
2023-01-28T12:46:27.867Z,15.90
2023-01-28T12:47:34.647Z,16.90
2023-01-28T12:48:40.267Z,16.58
2023-01-28T12:49:47.111Z,15.27
2023-01-28T12:50:53.187Z,16.83
2023-01-28T12:52:01.245Z,19.00
2023-01-28T12:53:16.333Z,15.77
2023-01-28T12:54:21.975Z,17.13
2023-01-28T12:55:36.949Z,19.08
2023-01-28T12:56:42.943Z,18.40
2023-01-28T12:57:45.957Z,16.77
2023-01-28T12:58:51.435Z,18.10
2023-01-28T12:59:59.012Z,16.83
2023-01-28T13:01:04.179Z,18.20
2023-01-28T13:02:19.297Z,20.45
2023-01-28T13:03:27.898Z,16.17
2023-01-28T13:04:37.301Z,18.05
2023-01-28T13:05:44.406Z,17.48
2023-01-28T13:06:55.859Z,17.10
2023-01-28T13:08:01.279Z,19.58
2023-01-28T13:09:17.782Z,17.98
2023-01-28T13:10:24.024Z,15.10
2023-01-28T13:11:33.667Z,16.13
2023-01-28T13:12:37.120Z,16.35
2023-01-28T13:13:42.200Z,17.90
2023-01-28T13:14:45.346Z,18.27
2023-01-28T13:15:48.676Z,17.60
2023-01-28T13:16:50.484Z,17.02
2023-01-28T13:17:57.734Z,21.98
2023-01-28T13:19:08.945Z,19.02
2023-01-28T13:20:15.772Z,20.52
2023-01-28T13:21:34.647Z,21.70
2023-01-28T13:22:45.550Z,21.60
2023-01-28T13:23:48.857Z,21.90
2023-01-28T13:24:52.025Z,18.98
2023-01-28T13:25:55.924Z,21.88
2023-01-28T13:26:57.929Z,23.52
2023-01-28T13:28:02.096Z,27.85
2023-01-28T13:29:09.816Z,23.92
2023-01-28T13:30:25.579Z,23.30
2023-01-28T13:31:37.641Z,24.48
2023-01-28T13:32:40.597Z,22.52
2023-01-28T13:33:43.523Z,24.30
2023-01-28T13:34:46.304Z,27.27
2023-01-28T13:35:53.945Z,26.85
2023-01-28T13:36:57.259Z,26.27
2023-01-28T13:38:08.269Z,24.15
2023-01-28T13:39:18.059Z,23.50
2023-01-28T13:40:25.391Z,30.98
2023-01-28T13:41:38.577Z,29.70
2023-01-28T13:42:42.220Z,28.85
2023-01-28T13:43:44.010Z,36.53
2023-01-28T13:44:46.794Z,58.35
2023-01-28T13:45:56.745Z,117.65
2023-01-28T13:47:13.452Z,109.03
2023-01-28T13:48:23.679Z,94.82
2023-01-28T13:49:31.117Z,75.57
2023-01-28T13:50:40.156Z,61.33
2023-01-28T13:51:49.908Z,55.60
2023-01-28T13:52:57.667Z,57.33
2023-01-28T13:54:02.883Z,55.38
2023-01-28T13:55:07.298Z,34.33
2023-01-28T13:56:20.840Z,66.40
2023-01-28T13:57:48.756Z,77.32
2023-01-28T13:59:08.133Z,49.72
2023-01-28T14:00:21.493Z,59.03
2023-01-28T14:02:04.153Z,56.22
2023-01-28T14:03:48.624Z,71.88
2023-01-28T14:05:32.280Z,41.42
2023-01-28T14:07:22.444Z,47.92
2023-01-28T14:08:55.368Z,38.33
2023-01-28T14:10:12.927Z,40.60
2023-01-28T14:11:33.703Z,39.28
2023-01-28T14:12:59.960Z,29.52
2023-01-28T14:14:29.261Z,31.15
2023-01-28T14:15:51.894Z,29.15
2023-01-28T14:16:58.105Z,33.72
2023-01-28T14:18:00.441Z,30.75
2023-01-28T14:19:03.639Z,35.70
2023-01-28T14:20:08.809Z,41.13
2023-01-28T14:21:12.587Z,38.85
2023-01-28T14:22:18.825Z,36.10
2023-01-28T14:23:22.691Z,37.30
2023-01-28T14:24:25.794Z,37.58
2023-01-28T14:25:36.381Z,39.30
2023-01-28T14:26:48.701Z,40.00